createdAt,value
2022-10-12T00:01:27.109Z,17.50
2022-10-12T00:04:29.982Z,16.70
2022-10-12T00:07:32.818Z,16.80
2022-10-12T00:10:40.463Z,17.30
2022-10-12T00:13:43.320Z,17.80
2022-10-12T00:16:46.120Z,19.80
2022-10-12T00:19:50.392Z,20.40
2022-10-12T00:22:53.217Z,19.20
2022-10-12T00:25:56.119Z,18.80
2022-10-12T00:29:01.819Z,17.10
2022-10-12T00:32:05.897Z,16.60
2022-10-12T00:35:09.017Z,16.00
2022-10-12T00:38:11.981Z,15.20
2022-10-12T00:41:16.147Z,13.90
2022-10-12T00:44:52.053Z,14.00
2022-10-12T00:47:58.507Z,13.40
2022-10-12T00:51:03.165Z,13.40
2022-10-12T00:54:12.343Z,12.40
2022-10-12T00:57:18.215Z,14.50
2022-10-12T01:00:22.777Z,13.30
2022-10-12T01:03:25.647Z,12.30
2022-10-12T01:06:30.129Z,11.20
2022-10-12T01:09:33.491Z,10.70
2022-10-12T01:12:38.571Z,11.10
2022-10-12T01:16:01.601Z,10.00
2022-10-12T01:19:57.290Z,10.40
2022-10-12T01:23:15.632Z,10.80
2022-10-12T01:26:50.883Z,11.30
2022-10-12T01:30:14.154Z,11.10
2022-10-12T01:33:31.098Z,12.80
2022-10-12T01:36:41.578Z,11.40
2022-10-12T01:39:52.329Z,11.80
2022-10-12T01:42:56.994Z,12.20
2022-10-12T01:46:25.779Z,11.90
2022-10-12T01:49:32.882Z,12.00
2022-10-12T01:52:56.483Z,11.90
2022-10-12T01:56:10.735Z,12.40
2022-10-12T01:59:32.350Z,12.00
2022-10-12T02:02:59.218Z,13.10
2022-10-12T02:06:16.109Z,13.70
2022-10-12T02:09:26.340Z,14.40
2022-10-12T02:12:31.599Z,14.90
2022-10-12T02:15:38.469Z,17.10
2022-10-12T02:18:45.313Z,16.50
2022-10-12T02:21:49.525Z,20.30
2022-10-12T02:24:56.201Z,20.60
2022-10-12T02:28:17.230Z,19.20
2022-10-12T02:31:35.708Z,19.40
2022-10-12T02:34:46.447Z,20.20
2022-10-12T02:37:56.641Z,20.40
2022-10-12T02:41:14.419Z,22.10
2022-10-12T02:44:24.489Z,19.60
2022-10-12T02:47:30.224Z,21.20
2022-10-12T02:50:33.414Z,22.90
2022-10-12T02:53:36.741Z,21.90
2022-10-12T02:56:45.551Z,21.60
2022-10-12T02:59:48.374Z,22.20
2022-10-12T03:02:51.164Z,21.90
2022-10-12T03:05:54.121Z,21.50
2022-10-12T03:08:57.413Z,21.80
2022-10-12T03:12:00.238Z,24.00
2022-10-12T03:15:03.307Z,23.90
2022-10-12T03:18:06.127Z,24.10
2022-10-12T03:21:09.550Z,23.90
2022-10-12T03:24:12.386Z,23.50
2022-10-12T03:27:15.178Z,25.20
2022-10-12T03:30:18.054Z,25.30
2022-10-12T03:33:21.003Z,25.70
2022-10-12T03:36:23.818Z,25.00
2022-10-12T03:39:26.998Z,27.20
2022-10-12T03:42:29.780Z,26.10
2022-10-12T03:45:32.911Z,27.70
2022-10-12T03:48:35.817Z,25.70
2022-10-12T03:51:38.669Z,25.60
2022-10-12T03:54:41.465Z,25.20
2022-10-12T03:57:45.710Z,24.90
2022-10-12T04:00:55.501Z,28.80
2022-10-12T04:03:58.343Z,29.80
2022-10-12T04:07:01.163Z,27.30
2022-10-12T04:10:05.265Z,27.30
2022-10-12T04:13:08.155Z,30.60
2022-10-12T04:16:11.097Z,31.40
2022-10-12T04:19:14.149Z,32.30
2022-10-12T04:22:17.088Z,32.00
2022-10-12T04:25:19.970Z,32.20
2022-10-12T04:28:22.872Z,35.40
2022-10-12T04:31:25.748Z,34.30
2022-10-12T04:34:28.973Z,34.30
2022-10-12T04:37:32.113Z,35.00
2022-10-12T04:40:35.002Z,34.50
2022-10-12T04:43:37.774Z,33.40
2022-10-12T04:46:40.585Z,35.30
2022-10-12T04:49:43.492Z,35.20
2022-10-12T04:52:46.520Z,34.50
2022-10-12T04:55:49.468Z,34.40
2022-10-12T04:58:52.668Z,35.60
2022-10-12T05:01:55.633Z,36.00
2022-10-12T05:04:58.618Z,35.50
2022-10-12T05:08:02.369Z,37.40
2022-10-12T05:11:05.370Z,37.50
2022-10-12T05:14:09.299Z,36.80
2022-10-12T05:17:12.960Z,36.40
2022-10-12T05:20:15.976Z,38.70
2022-10-12T05:23:18.798Z,36.10
2022-10-12T05:26:22.257Z,37.70
2022-10-12T05:29:25.319Z,37.60
2022-10-12T05:32:28.335Z,33.50
2022-10-12T05:35:31.248Z,36.20
2022-10-12T05:38:34.571Z,37.40
2022-10-12T05:41:37.415Z,36.50
2022-10-12T05:44:40.254Z,37.10
2022-10-12T05:47:43.061Z,38.60
2022-10-12T05:50:45.935Z,38.10
2022-10-12T05:53:48.833Z,37.00
2022-10-12T05:56:51.737Z,40.00
2022-10-12T05:59:54.623Z,39.10
2022-10-12T06:02:57.833Z,41.30
2022-10-12T06:06:01.008Z,37.60
2022-10-12T06:09:03.875Z,39.60
2022-10-12T06:12:07.837Z,38.50
2022-10-12T06:15:11.192Z,37.30
2022-10-12T06:18:14.771Z,38.70
2022-10-12T06:21:34.475Z,37.00
2022-10-12T06:24:38.708Z,38.90
2022-10-12T06:27:44.960Z,38.20
2022-10-12T06:30:59.512Z,37.00
2022-10-12T06:34:02.431Z,38.80
2022-10-12T06:37:05.491Z,38.20
2022-10-12T06:40:08.983Z,40.10
2022-10-12T06:43:12.021Z,39.80
2022-10-12T06:46:14.927Z,38.10
2022-10-12T06:49:17.954Z,39.70
2022-10-12T06:52:21.071Z,37.80
2022-10-12T06:55:25.922Z,39.60
2022-10-12T06:58:28.802Z,39.90
2022-10-12T07:01:31.839Z,38.20
2022-10-12T07:04:34.826Z,40.30
2022-10-12T07:07:38.531Z,38.30
2022-10-12T07:10:41.387Z,38.50
2022-10-12T07:13:44.309Z,39.00
2022-10-12T07:16:52.868Z,36.50
2022-10-12T07:19:57.949Z,36.60
2022-10-12T07:23:00.810Z,35.70
2022-10-12T07:26:04.605Z,36.30
2022-10-12T07:29:07.840Z,35.30
2022-10-12T07:32:10.826Z,35.00
2022-10-12T07:35:13.790Z,36.00
2022-10-12T07:38:16.723Z,32.30
2022-10-12T07:41:19.707Z,33.80
2022-10-12T07:44:22.887Z,47.60
2022-10-12T07:47:25.771Z,40.50
2022-10-12T07:50:28.657Z,31.30
2022-10-12T07:53:34.197Z,17.40
2022-10-12T07:56:37.100Z,13.80
2022-10-12T07:59:39.984Z,11.90
2022-10-12T08:02:43.503Z,11.80
2022-10-12T08:05:46.419Z,10.40
2022-10-12T08:08:49.400Z,11.90
2022-10-12T08:11:52.282Z,10.60
2022-10-12T08:14:55.161Z,11.20
2022-10-12T08:17:57.981Z,10.20
2022-10-12T08:21:04.688Z,9.90
2022-10-12T08:24:08.183Z,10.00
2022-10-12T08:27:11.002Z,9.30
2022-10-12T08:30:14.366Z,9.40
2022-10-12T08:33:18.826Z,7.10
2022-10-12T08:36:38.837Z,6.60
2022-10-12T08:39:41.783Z,6.90
2022-10-12T08:42:56.599Z,6.50
2022-10-12T08:46:02.713Z,5.90
2022-10-12T08:49:24.072Z,6.00
2022-10-12T08:52:43.855Z,5.30
2022-10-12T08:55:47.106Z,5.00
2022-10-12T08:58:51.710Z,4.10
2022-10-12T09:02:13.465Z,3.80
2022-10-12T09:05:24.264Z,3.60
2022-10-12T09:09:10.313Z,3.60
2022-10-12T09:12:21.459Z,2.90
2022-10-12T09:15:35.166Z,2.70
2022-10-12T09:18:45.789Z,2.20
2022-10-12T09:21:49.832Z,1.90
2022-10-12T09:24:53.048Z,1.80
2022-10-12T09:28:13.228Z,1.70
2022-10-12T09:31:48.365Z,2.00
2022-10-12T09:34:51.118Z,2.10
2022-10-12T09:37:54.836Z,2.80
2022-10-12T09:40:57.744Z,2.90
2022-10-12T09:44:03.341Z,2.90
2022-10-12T09:47:24.056Z,2.40
2022-10-12T09:50:40.975Z,2.40
2022-10-12T09:53:48.944Z,2.30
2022-10-12T09:56:52.479Z,3.20
2022-10-12T09:59:55.849Z,2.80
2022-10-12T10:02:59.729Z,2.50
2022-10-12T10:06:04.507Z,2.30
2022-10-12T10:09:27.408Z,2.80
2022-10-12T10:12:30.491Z,3.20
2022-10-12T10:15:40.879Z,3.20
2022-10-12T10:18:48.799Z,3.40
2022-10-12T10:21:53.423Z,3.80
2022-10-12T10:25:00.429Z,3.60
2022-10-12T10:28:34.931Z,3.50
2022-10-12T10:31:38.013Z,3.40
2022-10-12T10:34:43.993Z,4.20
2022-10-12T10:37:50.611Z,3.60
2022-10-12T10:40:57.136Z,2.80
2022-10-12T10:44:00.043Z,2.60
2022-10-12T10:47:12.254Z,2.40
2022-10-12T10:50:38.264Z,2.60
2022-10-12T10:53:47.593Z,2.60
2022-10-12T10:56:53.694Z,2.60
2022-10-12T11:00:33.346Z,2.60
2022-10-12T11:04:00.110Z,3.20
2022-10-12T11:07:17.022Z,2.70
2022-10-12T11:10:33.306Z,2.50
2022-10-12T11:13:41.731Z,2.50
2022-10-12T11:16:54.348Z,2.50
2022-10-12T11:20:06.173Z,3.00
2022-10-12T11:23:38.782Z,2.80
2022-10-12T11:26:50.097Z,2.70
2022-10-12T11:30:09.204Z,2.60
2022-10-12T11:33:19.580Z,2.50
2022-10-12T11:36:26.661Z,2.50
2022-10-12T11:39:45.208Z,2.80
2022-10-12T11:42:49.897Z,3.10
2022-10-12T11:45:57.157Z,3.30
2022-10-12T11:49:06.613Z,3.10
2022-10-12T11:52:11.430Z,2.90
2022-10-12T11:55:50.605Z,2.50
2022-10-12T11:59:23.950Z,2.60
2022-10-12T12:02:44.414Z,2.70
2022-10-12T12:05:47.275Z,2.40
2022-10-12T12:08:51.686Z,2.80
2022-10-12T12:12:24.257Z,3.60
2022-10-12T12:15:27.123Z,2.40
2022-10-12T12:18:33.907Z,2.50
2022-10-12T12:22:14.218Z,2.60
2022-10-12T12:25:22.472Z,2.70
2022-10-12T12:28:25.427Z,2.30
2022-10-12T12:31:29.021Z,2.70
2022-10-12T12:34:31.829Z,2.30
2022-10-12T12:37:35.121Z,2.20
2022-10-12T12:40:40.299Z,2.20
2022-10-12T12:43:49.270Z,2.00
2022-10-12T12:46:52.141Z,2.30
2022-10-12T12:50:05.551Z,2.00
2022-10-12T12:53:20.144Z,2.30
2022-10-12T12:56:25.936Z,2.30
2022-10-12T12:59:42.371Z,2.30
2022-10-12T13:03:12.764Z,2.70
2022-10-12T13:06:42.563Z,2.30
2022-10-12T13:10:02.095Z,2.10
2022-10-12T13:13:23.219Z,2.40
2022-10-12T13:20:27.088Z,2.50
2022-10-12T13:23:30.136Z,2.30
2022-10-12T13:26:35.846Z,2.30
2022-10-12T13:29:51.375Z,2.10
2022-10-12T13:33:11.471Z,2.40
2022-10-12T13:36:23.429Z,2.50
2022-10-12T13:39:27.361Z,2.60
2022-10-12T13:42:34.550Z,2.50
2022-10-12T13:45:44.905Z,2.20
2022-10-12T13:48:59.875Z,2.60
2022-10-12T13:52:11.787Z,2.80
2022-10-12T13:55:16.105Z,2.50
2022-10-12T13:58:24.412Z,2.50
2022-10-12T14:01:28.125Z,2.60
2022-10-12T14:04:33.746Z,2.20
2022-10-12T14:07:39.476Z,1.90
2022-10-12T14:10:44.473Z,3.10
2022-10-12T14:13:47.886Z,3.80
2022-10-12T14:16:51.780Z,2.80
2022-10-12T14:19:56.412Z,2.90
2022-10-12T14:23:01.582Z,2.40
2022-10-12T14:26:04.486Z,2.50
2022-10-12T14:29:32.381Z,2.90
2022-10-12T14:32:35.261Z,2.70
2022-10-12T14:35:42.172Z,2.70
2022-10-12T14:38:47.363Z,5.00
2022-10-12T14:41:51.375Z,2.70
2022-10-12T14:44:54.928Z,2.60
2022-10-12T14:47:59.896Z,2.20
2022-10-12T14:51:02.816Z,2.60
2022-10-12T14:54:09.980Z,2.70
2022-10-12T14:57:15.195Z,2.40
2022-10-12T15:00:20.597Z,2.30
2022-10-12T15:03:24.051Z,2.50
2022-10-12T15:06:27.129Z,2.80
2022-10-12T15:09:29.967Z,2.00
2022-10-12T15:12:33.207Z,2.00
2022-10-12T15:15:46.903Z,2.30
2022-10-12T15:18:50.804Z,2.30
2022-10-12T15:21:53.922Z,2.10
2022-10-12T15:24:56.851Z,2.50
2022-10-12T15:27:59.733Z,2.30
2022-10-12T15:31:19.005Z,2.40
2022-10-12T15:34:22.420Z,2.60
2022-10-12T15:37:30.289Z,2.50
2022-10-12T15:40:34.509Z,2.50
2022-10-12T15:43:39.705Z,2.20
2022-10-12T15:46:46.201Z,2.30
2022-10-12T15:49:49.018Z,2.30
2022-10-12T15:52:52.675Z,2.40
2022-10-12T15:55:56.109Z,2.10
2022-10-12T15:58:59.332Z,2.50
2022-10-12T16:02:02.190Z,2.70
2022-10-12T16:05:14.442Z,2.70
2022-10-12T16:08:17.298Z,3.50
2022-10-12T16:11:20.406Z,4.20
2022-10-12T16:14:23.636Z,5.00
2022-10-12T16:17:28.101Z,6.80
2022-10-12T16:20:36.785Z,6.50
2022-10-12T16:23:40.908Z,7.00
2022-10-12T16:26:45.130Z,6.40
2022-10-12T16:29:48.111Z,7.30
2022-10-12T16:32:51.662Z,7.80
2022-10-12T16:35:54.448Z,7.00
2022-10-12T16:38:57.643Z,7.30
2022-10-12T16:42:00.570Z,7.30
2022-10-12T16:45:04.320Z,7.20
2022-10-12T16:48:07.363Z,7.80
2022-10-12T16:51:13.015Z,7.10
2022-10-12T16:54:16.649Z,7.20
2022-10-12T16:57:20.201Z,7.50
2022-10-12T17:00:26.020Z,7.40
2022-10-12T17:03:28.804Z,7.20
2022-10-12T17:06:31.700Z,8.20
2022-10-12T17:09:34.536Z,8.10
2022-10-12T17:12:37.571Z,8.70
2022-10-12T17:15:41.575Z,7.80
2022-10-12T17:18:44.419Z,8.10
2022-10-12T17:21:48.167Z,8.90
2022-10-12T17:24:51.116Z,8.60
2022-10-12T17:27:53.934Z,9.00
2022-10-12T17:30:58.128Z,9.40
2022-10-12T17:34:03.190Z,9.50
2022-10-12T17:37:07.288Z,10.30
2022-10-12T17:40:10.736Z,9.90
2022-10-12T17:43:13.527Z,10.80
2022-10-12T17:46:21.633Z,13.40
2022-10-12T17:49:27.290Z,14.80
2022-10-12T17:52:30.207Z,15.00
2022-10-12T17:55:48.109Z,13.60
2022-10-12T17:58:56.851Z,14.30
2022-10-12T18:02:00.117Z,15.10
2022-10-12T18:05:03.104Z,16.70
2022-10-12T18:08:06.011Z,18.10
2022-10-12T18:11:09.385Z,17.80
2022-10-12T18:14:13.401Z,18.50
2022-10-12T18:17:16.291Z,19.00
2022-10-12T18:20:19.170Z,20.80
2022-10-12T18:23:21.999Z,22.10
2022-10-12T18:26:25.045Z,22.70
2022-10-12T18:29:27.976Z,22.30
2022-10-12T18:32:30.772Z,27.50
2022-10-12T18:35:34.526Z,28.10
2022-10-12T18:38:37.656Z,28.70
2022-10-12T18:41:40.804Z,33.90
2022-10-12T18:44:44.936Z,35.50
2022-10-12T18:47:47.900Z,36.00
2022-10-12T18:50:52.586Z,36.20
2022-10-12T18:53:56.762Z,33.70
2022-10-12T18:57:07.307Z,30.90
2022-10-12T19:00:10.748Z,30.30
2022-10-12T19:03:13.654Z,32.80
2022-10-12T19:06:19.735Z,33.70
2022-10-12T19:09:23.645Z,31.60
2022-10-12T19:12:27.183Z,32.60
2022-10-12T19:15:30.600Z,33.70
2022-10-12T19:18:33.464Z,31.20
2022-10-12T19:21:36.250Z,29.60
2022-10-12T19:24:39.094Z,26.50
2022-10-12T19:27:41.999Z,25.10
2022-10-12T19:30:44.847Z,22.00
2022-10-12T19:33:47.887Z,22.40
2022-10-12T19:36:57.267Z,24.40
2022-10-12T19:40:07.759Z,22.80
2022-10-12T19:43:10.985Z,23.20
2022-10-12T19:46:14.006Z,25.80
2022-10-12T19:49:18.465Z,24.80
2022-10-12T19:52:21.454Z,31.00
2022-10-12T19:55:24.810Z,32.00
2022-10-12T19:58:28.295Z,37.60
2022-10-12T20:01:35.028Z,40.10
2022-10-12T20:04:37.977Z,40.90
2022-10-12T20:07:40.965Z,40.10
2022-10-12T20:10:43.801Z,39.50
2022-10-12T20:13:48.165Z,39.50
2022-10-12T20:16:51.319Z,36.80
2022-10-12T20:19:55.517Z,32.80
2022-10-12T20:22:58.406Z,33.90
2022-10-12T20:26:05.504Z,32.90
2022-10-12T20:29:08.786Z,35.00
2022-10-12T20:32:11.719Z,35.80
2022-10-12T20:35:14.577Z,37.70
2022-10-12T20:38:18.158Z,41.30
2022-10-12T20:41:21.962Z,42.70
2022-10-12T20:44:24.862Z,44.90
2022-10-12T20:47:30.905Z,48.90
2022-10-12T20:50:34.308Z,46.10
2022-10-12T20:53:38.012Z,50.40
2022-10-12T20:56:42.607Z,52.50
2022-10-12T20:59:48.870Z,46.80
2022-10-12T21:02:51.755Z,43.80
2022-10-12T21:05:54.532Z,42.60
2022-10-12T21:08:58.252Z,41.20
2022-10-12T21:12:02.917Z,37.30
2022-10-12T21:15:06.257Z,38.00
2022-10-12T21:18:09.198Z,35.50
2022-10-12T21:21:13.426Z,36.40
2022-10-12T21:24:16.666Z,37.80
2022-10-12T21:27:19.530Z,37.90
2022-10-12T21:30:22.348Z,39.00
2022-10-12T21:33:25.258Z,38.50
2022-10-12T21:36:30.003Z,38.30
2022-10-12T21:39:32.847Z,36.30
2022-10-12T21:42:35.688Z,40.10
2022-10-12T21:45:38.492Z,37.50
2022-10-12T21:48:41.396Z,38.20
2022-10-12T21:51:44.195Z,38.40
2022-10-12T21:54:47.226Z,37.50
2022-10-12T21:57:50.061Z,40.20
2022-10-12T22:00:52.948Z,39.40
2022-10-12T22:03:58.056Z,40.00
2022-10-12T22:07:00.899Z,38.10
2022-10-12T22:10:04.119Z,32.80
2022-10-12T22:13:08.248Z,32.30
2022-10-12T22:16:14.572Z,30.90
2022-10-12T22:19:21.540Z,28.80
2022-10-12T22:22:24.319Z,29.20
2022-10-12T22:25:27.254Z,28.30
2022-10-12T22:28:30.929Z,27.70
2022-10-12T22:31:34.803Z,27.80
2022-10-12T22:34:37.632Z,29.30
2022-10-12T22:37:40.487Z,27.80
2022-10-12T22:40:43.255Z,27.80
2022-10-12T22:43:47.276Z,26.30
2022-10-12T22:46:50.089Z,26.00
2022-10-12T22:49:52.897Z,25.40
2022-10-12T22:52:55.729Z,24.70
2022-10-12T22:56:00.849Z,25.10
2022-10-12T22:59:07.076Z,25.20
2022-10-12T23:02:09.978Z,23.40
2022-10-12T23:05:12.833Z,23.00
2022-10-12T23:08:15.829Z,22.10
2022-10-12T23:11:21.232Z,22.70
2022-10-12T23:14:24.192Z,20.90
2022-10-12T23:17:27.026Z,22.20
2022-10-12T23:20:30.226Z,22.20
2022-10-12T23:23:35.549Z,23.00
2022-10-12T23:26:38.407Z,21.60
2022-10-12T23:29:41.214Z,22.10
2022-10-12T23:32:44.492Z,21.70
2022-10-12T23:35:58.140Z,23.10
2022-10-12T23:39:04.589Z,22.20
2022-10-12T23:42:07.447Z,21.80
2022-10-12T23:45:10.404Z,22.00
2022-10-12T23:48:14.284Z,21.00
2022-10-12T23:51:18.104Z,20.60
2022-10-12T23:54:20.947Z,20.70
2022-10-12T23:57:45.763Z,21.50
